Southsea, United Kingdom
Current Conditions -  °F | °C
As of 8:50 AM on Saturday 25 Oct 2014 (Local Time) from EGHI Reporting Station
Broken Clouds Broken Clouds  
Wind Chill: 10°   Ceiling: 4200
Heat Index: 10°   Visibility: 6mi
Dew Point:   Wind: 5mph
Humidity: 76%   Direction: 260°W
Pressure: 30.09"   Gusts: NA
Location:  50.79°N, 1.07°W
Report Text: EGHI 250750Z 26004KT 9999 BKN042 10/06 Q1019
Loading
Personal Weather Stations






























Interactive Weather Map
Tropical Storm Tracking
New forecast layout! Learn more

10-Day Weather Forecast

Advertisements
Track Severe Weather on mobile